createdAt,value
2022-10-17T00:00:03.081Z,15.01
2022-10-17T00:02:29.403Z,14.86
2022-10-17T00:04:55.762Z,14.94
2022-10-17T00:07:22.112Z,14.96
2022-10-17T00:09:48.457Z,15.00
2022-10-17T00:12:14.798Z,15.10
2022-10-17T00:14:41.295Z,15.13
2022-10-17T00:17:07.680Z,14.99
2022-10-17T00:19:34.168Z,14.94
2022-10-17T00:22:00.496Z,15.14
2022-10-17T00:24:26.903Z,15.18
2022-10-17T00:26:53.247Z,15.10
2022-10-17T00:29:19.592Z,14.97
2022-10-17T00:31:45.991Z,15.13
2022-10-17T00:34:12.394Z,14.79
2022-10-17T00:36:38.815Z,14.85
2022-10-17T00:39:05.242Z,14.89
2022-10-17T00:41:33.655Z,14.92
2022-10-17T00:44:01.718Z,14.88
2022-10-17T00:46:34.600Z,14.93
2022-10-17T00:49:06.783Z,14.94
2022-10-17T00:51:45.106Z,14.87
2022-10-17T00:54:14.582Z,14.97
2022-10-17T00:56:41.294Z,14.97
2022-10-17T00:59:10.775Z,14.67
2022-10-17T01:01:37.310Z,14.56
2022-10-17T01:04:03.844Z,14.55
2022-10-17T01:06:30.338Z,14.64
2022-10-17T01:08:56.870Z,14.41
2022-10-17T01:11:41.980Z,14.48
2022-10-17T01:14:31.516Z,14.44
2022-10-17T01:17:39.343Z,14.57
2022-10-17T01:20:37.239Z,14.45
2022-10-17T01:23:09.484Z,14.44
2022-10-17T01:26:07.367Z,14.54
2022-10-17T01:29:01.036Z,14.38
2022-10-17T01:31:39.457Z,14.44
2022-10-17T01:34:19.666Z,14.26
2022-10-17T01:37:02.718Z,14.30
2022-10-17T01:39:49.927Z,14.11
2022-10-17T01:42:28.879Z,13.81
2022-10-17T01:45:11.672Z,13.90
2022-10-17T01:47:39.770Z,13.92
2022-10-17T01:50:13.762Z,13.85
2022-10-17T01:52:47.072Z,14.00
2022-10-17T01:55:28.382Z,14.05
2022-10-17T01:58:00.973Z,14.07
2022-10-17T02:00:28.213Z,14.12
2022-10-17T02:03:01.946Z,14.13
2022-10-17T02:05:33.463Z,14.17
2022-10-17T02:07:59.781Z,14.06
2022-10-17T02:10:38.222Z,14.09
2022-10-17T02:13:09.516Z,14.04
2022-10-17T02:15:52.345Z,14.09
2022-10-17T02:18:41.627Z,14.11
2022-10-17T02:21:46.177Z,14.06
2022-10-17T02:24:32.656Z,14.12
2022-10-17T02:27:38.167Z,13.80
2022-10-17T02:30:12.638Z,13.99
2022-10-17T02:32:54.553Z,13.75
2022-10-17T02:35:25.253Z,13.98
2022-10-17T02:37:53.284Z,13.84
2022-10-17T02:40:22.768Z,14.00
2022-10-17T02:42:51.274Z,14.10
2022-10-17T02:45:17.987Z,13.95
2022-10-17T02:47:50.647Z,13.97
2022-10-17T02:50:18.243Z,13.89
2022-10-17T02:53:01.231Z,13.75
2022-10-17T02:55:34.126Z,13.81
2022-10-17T02:58:06.932Z,13.93
2022-10-17T03:00:34.631Z,13.81
2022-10-17T03:03:01.005Z,13.93
2022-10-17T03:05:29.508Z,13.93
2022-10-17T03:07:56.873Z,13.98
2022-10-17T03:10:23.633Z,13.78
2022-10-17T03:12:50.054Z,13.87
2022-10-17T03:15:16.552Z,13.90
2022-10-17T03:17:42.970Z,13.87
2022-10-17T03:20:09.779Z,13.91
2022-10-17T03:22:36.199Z,13.93
2022-10-17T03:25:02.628Z,13.97
2022-10-17T03:27:29.241Z,14.06
2022-10-17T03:29:55.746Z,13.91
2022-10-17T03:32:22.159Z,13.78
2022-10-17T03:34:48.521Z,13.78
2022-10-17T03:37:14.895Z,13.63
2022-10-17T03:39:41.230Z,13.53
2022-10-17T03:42:07.658Z,13.68
2022-10-17T03:44:34.017Z,13.66
2022-10-17T03:47:00.498Z,13.69
2022-10-17T03:49:26.841Z,13.75
2022-10-17T03:51:53.189Z,13.71
2022-10-17T03:54:19.509Z,13.50
2022-10-17T03:56:45.942Z,13.54
2022-10-17T03:59:14.390Z,13.66
2022-10-17T04:01:41.245Z,13.72
2022-10-17T04:04:08.544Z,13.57
2022-10-17T04:06:35.667Z,13.49
2022-10-17T04:09:02.593Z,13.67
2022-10-17T04:11:29.629Z,13.63
2022-10-17T04:13:57.586Z,13.63
2022-10-17T04:16:24.317Z,13.56
2022-10-17T04:18:58.571Z,13.62
2022-10-17T04:21:27.082Z,13.74
2022-10-17T04:23:58.433Z,13.81
2022-10-17T04:26:25.367Z,13.88
2022-10-17T04:28:51.902Z,13.87
2022-10-17T04:31:18.860Z,13.97
2022-10-17T04:33:49.367Z,13.74
2022-10-17T04:36:18.758Z,13.58
2022-10-17T04:38:45.224Z,13.70
2022-10-17T04:41:14.809Z,13.77
2022-10-17T04:43:43.428Z,13.70
2022-10-17T04:46:13.523Z,13.73
2022-10-17T04:48:40.777Z,13.70
2022-10-17T04:51:15.490Z,13.36
2022-10-17T04:53:42.936Z,13.33
2022-10-17T04:56:15.395Z,13.39
2022-10-17T04:58:42.860Z,13.42
2022-10-17T05:01:12.364Z,13.38
2022-10-17T05:03:38.871Z,13.40
2022-10-17T05:06:06.957Z,13.09
2022-10-17T05:08:33.739Z,13.47
2022-10-17T05:13:32.631Z,13.37
2022-10-17T05:16:00.754Z,13.37
2022-10-17T05:18:28.308Z,13.53
2022-10-17T05:20:54.973Z,13.57
2022-10-17T05:23:21.407Z,13.56
2022-10-17T05:25:47.739Z,13.56
2022-10-17T05:28:14.075Z,13.50
2022-10-17T05:30:40.547Z,13.34
2022-10-17T05:33:06.910Z,13.28
2022-10-17T05:35:33.270Z,13.33
2022-10-17T05:38:00.497Z,13.07
2022-10-17T05:40:26.930Z,12.97
2022-10-17T05:42:53.282Z,12.64
2022-10-17T05:45:19.739Z,12.50
2022-10-17T05:47:46.111Z,12.53
2022-10-17T05:50:12.541Z,12.68
2022-10-17T05:52:38.894Z,12.88
2022-10-17T05:55:06.056Z,12.88
2022-10-17T05:57:32.428Z,12.78
2022-10-17T05:59:58.785Z,12.82
2022-10-17T06:02:25.335Z,13.02
2022-10-17T06:04:51.824Z,13.02
2022-10-17T06:07:18.215Z,13.50
2022-10-17T06:12:15.943Z,13.34
2022-10-17T06:14:42.271Z,13.39
2022-10-17T06:17:13.453Z,13.50
2022-10-17T06:19:42.120Z,13.36
2022-10-17T06:22:08.519Z,13.37
2022-10-17T06:24:34.905Z,13.42
2022-10-17T06:27:01.424Z,13.34
2022-10-17T06:29:27.805Z,13.43
2022-10-17T06:31:54.370Z,13.33
2022-10-17T06:34:21.094Z,13.35
2022-10-17T06:36:47.867Z,13.33
2022-10-17T06:39:14.515Z,13.31
2022-10-17T06:41:41.615Z,13.24
2022-10-17T06:44:11.077Z,13.32
2022-10-17T06:46:38.501Z,13.39
2022-10-17T06:49:05.090Z,13.58
2022-10-17T06:51:32.195Z,13.33
2022-10-17T06:53:59.127Z,13.32
2022-10-17T06:56:25.578Z,13.36
2022-10-17T06:58:52.879Z,13.35
2022-10-17T07:01:19.253Z,13.36
2022-10-17T07:03:48.918Z,13.44
2022-10-17T07:06:15.627Z,13.41
2022-10-17T07:08:45.977Z,13.32
2022-10-17T07:11:14.928Z,13.42
2022-10-17T07:13:42.151Z,13.49
2022-10-17T07:16:09.369Z,13.32
2022-10-17T07:18:35.854Z,13.33
2022-10-17T07:21:03.692Z,13.38
2022-10-17T07:23:30.329Z,13.56
2022-10-17T07:26:17.137Z,13.81
2022-10-17T07:28:45.326Z,13.86
2022-10-17T07:31:17.557Z,13.97
2022-10-17T07:36:17.527Z,13.89
2022-10-17T07:38:44.327Z,14.19
2022-10-17T07:41:12.072Z,14.02
2022-10-17T07:43:38.927Z,14.01
2022-10-17T07:46:05.868Z,14.52
2022-10-17T07:48:32.497Z,14.29
2022-10-17T07:51:02.497Z,14.09
2022-10-17T07:53:28.978Z,14.16
2022-10-17T07:55:55.359Z,14.44
2022-10-17T07:58:21.738Z,14.12
2022-10-17T08:00:51.201Z,14.20
2022-10-17T08:03:17.770Z,14.42
2022-10-17T08:05:44.261Z,14.25
2022-10-17T08:08:10.625Z,14.29
2022-10-17T08:10:37.052Z,14.28
2022-10-17T08:13:03.466Z,14.36
2022-10-17T08:15:31.853Z,14.45
2022-10-17T08:17:59.128Z,14.53
2022-10-17T08:20:25.563Z,14.66
2022-10-17T08:22:55.714Z,14.62
2022-10-17T08:25:23.238Z,14.79
2022-10-17T08:27:50.037Z,14.82
2022-10-17T08:30:17.071Z,15.03
2022-10-17T08:32:43.564Z,15.01
2022-10-17T08:35:10.289Z,15.32
2022-10-17T08:37:36.868Z,15.33
2022-10-17T08:40:04.222Z,15.40
2022-10-17T08:43:08.600Z,15.90
2022-10-17T08:45:53.159Z,16.11
2022-10-17T08:48:24.163Z,15.80
2022-10-17T08:50:57.804Z,15.96
2022-10-17T08:53:49.579Z,16.10
2022-10-17T08:56:44.189Z,16.52
2022-10-17T08:59:30.326Z,16.37
2022-10-17T09:02:14.873Z,16.23
2022-10-17T09:04:41.241Z,16.65
2022-10-17T09:07:33.899Z,16.66
2022-10-17T09:10:28.748Z,16.69
2022-10-17T09:13:19.269Z,16.74
2022-10-17T09:16:19.328Z,16.87
2022-10-17T09:19:23.144Z,16.92
2022-10-17T09:21:56.112Z,17.14
2022-10-17T09:24:52.827Z,17.40
2022-10-17T09:27:40.476Z,17.57
2022-10-17T09:30:44.228Z,17.83
2022-10-17T09:33:28.184Z,18.20
2022-10-17T09:36:04.186Z,18.66
2022-10-17T09:38:39.179Z,18.41
2022-10-17T09:41:39.241Z,18.29
2022-10-17T09:44:13.856Z,18.63
2022-10-17T09:46:40.353Z,18.75
2022-10-17T09:49:18.734Z,18.90
2022-10-17T09:51:45.278Z,19.11
2022-10-17T09:54:26.822Z,19.20
2022-10-17T09:57:02.751Z,19.51
2022-10-17T09:59:38.680Z,19.53
2022-10-17T10:02:13.717Z,19.51
2022-10-17T10:05:21.780Z,19.76
2022-10-17T10:08:14.187Z,19.77
2022-10-17T10:10:43.992Z,19.84
2022-10-17T10:13:22.263Z,19.95
2022-10-17T10:15:50.491Z,19.88
2022-10-17T10:18:26.060Z,19.96
2022-10-17T10:21:20.220Z,20.19
2022-10-17T10:24:03.338Z,20.50
2022-10-17T10:26:46.991Z,20.51
2022-10-17T10:29:34.145Z,20.68
2022-10-17T10:32:22.177Z,20.84
2022-10-17T10:34:56.557Z,20.89
2022-10-17T10:37:29.609Z,21.05
2022-10-17T10:40:27.305Z,21.00
2022-10-17T10:43:01.281Z,21.15
2022-10-17T10:45:52.828Z,21.27
2022-10-17T10:48:27.838Z,21.66
2022-10-17T10:51:14.383Z,21.80
2022-10-17T10:54:11.590Z,21.91
2022-10-17T10:56:43.684Z,21.94
2022-10-17T10:59:28.598Z,22.06
2022-10-17T11:02:00.044Z,22.32
2022-10-17T11:04:44.860Z,22.36
2022-10-17T11:07:17.596Z,22.60
2022-10-17T11:10:05.849Z,22.69
2022-10-17T11:12:45.522Z,22.82
2022-10-17T11:15:30.355Z,22.85
2022-10-17T11:18:03.633Z,22.87
2022-10-17T11:20:43.455Z,23.04
2022-10-17T11:23:24.682Z,23.13
2022-10-17T11:25:53.348Z,23.02
2022-10-17T11:28:23.046Z,23.19
2022-10-17T11:30:58.859Z,23.16
2022-10-17T11:33:55.959Z,23.13
2022-10-17T11:36:28.080Z,23.21
2022-10-17T11:39:00.019Z,23.21
2022-10-17T11:41:46.283Z,23.31
2022-10-17T11:44:35.149Z,23.39
2022-10-17T11:47:32.862Z,23.54
2022-10-17T11:53:24.258Z,23.57
2022-10-17T11:55:53.337Z,23.74
2022-10-17T11:58:22.545Z,23.69
2022-10-17T12:01:13.270Z,23.68
2022-10-17T12:03:51.742Z,23.76
2022-10-17T12:06:44.237Z,23.63
2022-10-17T12:09:33.702Z,23.76
2022-10-17T12:12:02.460Z,23.61
2022-10-17T12:14:45.014Z,23.53
2022-10-17T12:17:40.339Z,23.54
2022-10-17T12:20:24.870Z,23.54
2022-10-17T12:23:06.331Z,23.46
2022-10-17T12:25:35.306Z,23.40
2022-10-17T12:28:25.983Z,23.46
2022-10-17T12:31:02.601Z,23.18
2022-10-17T12:33:38.843Z,23.41
2022-10-17T12:36:17.438Z,23.43
2022-10-17T12:38:52.554Z,23.47
2022-10-17T12:41:38.030Z,23.63
2022-10-17T12:44:13.557Z,23.60
2022-10-17T12:46:44.845Z,23.63
2022-10-17T12:49:29.861Z,23.84
2022-10-17T12:52:16.685Z,23.59
2022-10-17T12:55:00.507Z,23.97
2022-10-17T12:57:51.437Z,24.01
2022-10-17T13:01:19.130Z,24.08
2022-10-17T13:03:46.171Z,24.02
2022-10-17T13:06:21.069Z,24.29
2022-10-17T13:08:55.544Z,24.09
2022-10-17T13:11:27.472Z,24.21
2022-10-17T13:13:57.258Z,24.24
2022-10-17T13:16:36.178Z,24.31
2022-10-17T13:19:11.762Z,24.19
2022-10-17T13:21:38.124Z,24.40
2022-10-17T13:24:21.918Z,24.34
2022-10-17T13:26:48.296Z,24.23
2022-10-17T13:29:15.885Z,24.27
2022-10-17T13:31:44.218Z,24.34
2022-10-17T13:34:19.434Z,24.41
2022-10-17T13:36:48.901Z,24.33
2022-10-17T13:39:23.177Z,24.26
2022-10-17T13:41:59.412Z,24.39
2022-10-17T13:44:28.788Z,24.43
2022-10-17T13:46:55.373Z,24.32
2022-10-17T13:49:35.139Z,24.35
2022-10-17T13:52:04.778Z,24.33
2022-10-17T13:54:37.260Z,24.38
2022-10-17T13:57:04.764Z,24.36
2022-10-17T13:59:40.258Z,24.29
2022-10-17T14:02:15.246Z,24.26
2022-10-17T14:05:11.631Z,24.33
2022-10-17T14:08:05.665Z,24.13
2022-10-17T14:10:30.476Z,24.25
2022-10-17T14:12:57.850Z,24.35
2022-10-17T14:15:29.777Z,24.34
2022-10-17T14:18:07.819Z,24.32
2022-10-17T14:23:35.528Z,24.18
2022-10-17T14:26:21.484Z,24.21
2022-10-17T14:29:07.026Z,24.49
2022-10-17T14:31:36.301Z,24.42
2022-10-17T14:34:04.856Z,24.53
2022-10-17T14:36:37.531Z,24.50
2022-10-17T14:39:18.216Z,24.45
2022-10-17T14:41:46.974Z,24.47
2022-10-17T14:44:22.822Z,24.45
2022-10-17T14:46:54.206Z,24.59
2022-10-17T14:49:28.600Z,24.59
2022-10-17T14:52:29.007Z,24.13
2022-10-17T14:54:56.984Z,24.19
2022-10-17T14:57:23.289Z,23.94
2022-10-17T14:59:54.830Z,24.15
2022-10-17T15:02:25.774Z,24.08
2022-10-17T15:04:52.917Z,23.91
2022-10-17T15:07:21.049Z,23.94
2022-10-17T15:09:49.043Z,23.88
2022-10-17T15:12:18.509Z,23.79
2022-10-17T15:14:45.639Z,23.68
2022-10-17T15:17:20.620Z,23.64
2022-10-17T15:19:47.880Z,23.65
2022-10-17T15:22:15.965Z,23.32
2022-10-17T15:24:42.893Z,23.47
2022-10-17T15:27:15.624Z,23.40
2022-10-17T15:29:42.009Z,23.47
2022-10-17T15:32:08.446Z,23.34
2022-10-17T15:34:34.799Z,23.26
2022-10-17T15:37:01.233Z,23.11
2022-10-17T15:39:27.590Z,22.99
2022-10-17T15:41:53.914Z,22.94
2022-10-17T15:44:20.243Z,22.99
2022-10-17T15:46:46.669Z,22.90
2022-10-17T15:49:17.170Z,22.87
2022-10-17T15:51:44.140Z,22.60
2022-10-17T15:54:10.487Z,22.50
2022-10-17T15:56:42.158Z,22.30
2022-10-17T15:59:18.313Z,22.15
2022-10-17T16:01:45.029Z,22.09
2022-10-17T16:04:13.045Z,21.89
2022-10-17T16:06:39.493Z,21.88
2022-10-17T16:09:05.842Z,21.77
2022-10-17T16:11:39.712Z,21.59
2022-10-17T16:14:14.872Z,21.36
2022-10-17T16:16:41.925Z,21.40
2022-10-17T16:19:09.003Z,21.51
2022-10-17T16:21:38.793Z,21.46
2022-10-17T16:24:06.210Z,21.44
2022-10-17T16:26:32.912Z,21.29
2022-10-17T16:29:02.780Z,21.23
2022-10-17T16:31:34.670Z,21.31
2022-10-17T16:34:03.011Z,21.28
2022-10-17T16:36:29.886Z,21.24
2022-10-17T16:38:56.300Z,21.26
2022-10-17T16:41:29.290Z,21.18
2022-10-17T16:43:58.436Z,20.99
2022-10-17T16:46:26.286Z,20.92
2022-10-17T16:48:52.742Z,20.77
2022-10-17T16:51:20.335Z,20.63
2022-10-17T16:53:49.995Z,20.68
2022-10-17T16:56:19.309Z,20.46
2022-10-17T16:58:46.447Z,20.51
2022-10-17T17:01:22.411Z,20.50
2022-10-17T17:03:49.825Z,20.52
2022-10-17T17:06:19.517Z,20.50
2022-10-17T17:08:46.117Z,20.48
2022-10-17T17:11:14.571Z,20.33
2022-10-17T17:13:41.318Z,20.17
2022-10-17T17:16:09.919Z,20.07
2022-10-17T17:18:36.521Z,19.94
2022-10-17T17:21:05.451Z,20.11
2022-10-17T17:23:34.827Z,20.19
2022-10-17T17:26:07.175Z,19.97
2022-10-17T17:28:34.962Z,19.98
2022-10-17T17:31:01.786Z,19.97
2022-10-17T17:33:29.942Z,19.93
2022-10-17T17:35:58.594Z,19.86
2022-10-17T17:38:24.943Z,19.81
2022-10-17T17:40:51.690Z,19.65
2022-10-17T17:43:18.905Z,19.63
2022-10-17T17:45:45.475Z,19.63
2022-10-17T17:48:12.323Z,19.68
2022-10-17T17:50:40.160Z,19.58
2022-10-17T17:53:07.831Z,19.62
2022-10-17T17:55:34.353Z,19.58
2022-10-17T17:58:00.717Z,19.54
2022-10-17T18:00:27.477Z,19.43
2022-10-17T18:02:54.026Z,19.44
2022-10-17T18:05:20.478Z,19.27
2022-10-17T18:07:46.869Z,19.23
2022-10-17T18:12:41.940Z,19.16
2022-10-17T18:15:08.576Z,19.14
2022-10-17T18:17:35.030Z,18.98
2022-10-17T18:20:02.651Z,19.03
2022-10-17T18:22:29.404Z,18.74
2022-10-17T18:24:56.006Z,18.84
2022-10-17T18:27:22.421Z,18.89
2022-10-17T18:29:48.792Z,18.88
2022-10-17T18:32:15.288Z,18.74
2022-10-17T18:34:42.438Z,18.77
2022-10-17T18:37:08.995Z,18.91
2022-10-17T18:39:35.685Z,18.76
2022-10-17T18:42:02.033Z,18.82
2022-10-17T18:44:28.381Z,18.73
2022-10-17T18:46:58.543Z,18.80
2022-10-17T18:49:27.900Z,18.79
2022-10-17T18:51:54.357Z,18.74
2022-10-17T18:54:22.128Z,18.60
2022-10-17T18:56:56.732Z,18.66
2022-10-17T18:59:23.287Z,18.65
2022-10-17T19:01:49.860Z,18.71
2022-10-17T19:04:16.603Z,18.67
2022-10-17T19:06:43.537Z,18.79
2022-10-17T19:09:11.870Z,18.76
2022-10-17T19:11:39.103Z,18.86
2022-10-17T19:14:12.821Z,18.95
2022-10-17T19:16:45.494Z,18.87
2022-10-17T19:19:15.207Z,18.94
2022-10-17T19:21:42.393Z,18.91
2022-10-17T19:24:12.997Z,18.91
2022-10-17T19:26:40.088Z,18.90
2022-10-17T19:29:10.754Z,18.97
2022-10-17T19:31:37.162Z,18.94
2022-10-17T19:34:04.358Z,18.94
2022-10-17T19:36:34.007Z,18.92
2022-10-17T19:39:06.107Z,18.97
2022-10-17T19:41:32.715Z,18.92
2022-10-17T19:44:00.101Z,19.01
2022-10-17T19:46:32.851Z,19.01
2022-10-17T19:49:00.095Z,18.91
2022-10-17T19:51:27.094Z,18.79
2022-10-17T19:53:54.955Z,18.64
2022-10-17T19:56:22.547Z,18.75
2022-10-17T19:58:49.841Z,18.79
2022-10-17T20:01:28.672Z,19.02
2022-10-17T20:03:55.982Z,18.88
2022-10-17T20:06:23.406Z,18.91
2022-10-17T20:08:50.026Z,18.83
2022-10-17T20:11:20.694Z,18.77
2022-10-17T20:13:47.311Z,18.75
2022-10-17T20:16:21.269Z,18.76
2022-10-17T20:18:52.309Z,18.76
2022-10-17T20:21:22.920Z,18.81
2022-10-17T20:23:50.519Z,18.76
2022-10-17T20:26:37.669Z,18.79
2022-10-17T20:29:10.422Z,18.71
2022-10-17T20:31:37.072Z,18.71
2022-10-17T20:34:03.941Z,18.68
2022-10-17T20:36:30.612Z,18.72
2022-10-17T20:38:58.868Z,18.51
2022-10-17T20:41:26.682Z,18.22
2022-10-17T20:43:54.758Z,18.39
2022-10-17T20:46:35.459Z,18.49
2022-10-17T20:49:04.220Z,18.42
2022-10-17T20:51:30.824Z,18.52
2022-10-17T20:56:30.548Z,18.68
2022-10-17T20:58:59.691Z,18.78
2022-10-17T21:01:27.469Z,18.77
2022-10-17T21:03:54.157Z,18.71
2022-10-17T21:06:21.855Z,18.64
2022-10-17T21:08:49.049Z,18.70
2022-10-17T21:11:20.546Z,18.64
2022-10-17T21:13:48.031Z,18.68
2022-10-17T21:16:18.211Z,18.72
2022-10-17T21:18:45.632Z,18.69
2022-10-17T21:21:19.383Z,18.71
2022-10-17T21:23:48.115Z,18.76
2022-10-17T21:26:15.541Z,18.81
2022-10-17T21:28:43.992Z,18.72
2022-10-17T21:31:24.862Z,18.74
2022-10-17T21:33:54.357Z,18.77
2022-10-17T21:36:22.217Z,18.76
2022-10-17T21:38:50.225Z,18.72
2022-10-17T21:41:19.608Z,18.66
2022-10-17T21:43:46.898Z,18.54
2022-10-17T21:46:17.305Z,18.47
2022-10-17T21:48:44.872Z,18.48
2022-10-17T21:51:16.567Z,18.47
2022-10-17T21:53:43.503Z,18.52
2022-10-17T21:56:13.452Z,18.55
2022-10-17T21:58:40.246Z,18.64
2022-10-17T22:01:09.735Z,18.62
2022-10-17T22:03:42.626Z,18.69
2022-10-17T22:09:00.498Z,18.62
2022-10-17T22:11:30.224Z,18.57
2022-10-17T22:14:03.934Z,18.53
2022-10-17T22:16:31.020Z,18.47
2022-10-17T22:19:06.148Z,18.42
2022-10-17T22:21:34.535Z,18.44
2022-10-17T22:24:05.407Z,18.39
2022-10-17T22:26:33.632Z,18.33
2022-10-17T22:29:00.237Z,18.34
2022-10-17T22:31:26.685Z,18.37
2022-10-17T22:33:53.117Z,18.49
2022-10-17T22:36:19.510Z,18.46
2022-10-17T22:38:45.855Z,18.50
2022-10-17T22:41:12.252Z,18.50
2022-10-17T22:43:38.614Z,18.76
2022-10-17T22:46:06.775Z,18.78
2022-10-17T22:48:33.910Z,19.07
2022-10-17T22:51:01.470Z,18.88
2022-10-17T22:53:29.383Z,18.63
2022-10-17T22:55:58.801Z,18.61
2022-10-17T22:58:26.213Z,18.57
2022-10-17T23:00:53.105Z,18.20
2022-10-17T23:03:21.225Z,18.31
2022-10-17T23:05:48.014Z,18.37
2022-10-17T23:08:15.380Z,18.29
2022-10-17T23:10:41.778Z,18.31
2022-10-17T23:13:08.110Z,18.30
2022-10-17T23:15:35.059Z,18.40
2022-10-17T23:18:02.435Z,18.39
2022-10-17T23:20:30.231Z,18.46
2022-10-17T23:22:57.482Z,18.51
2022-10-17T23:25:24.453Z,18.61
2022-10-17T23:27:50.832Z,18.48
2022-10-17T23:30:17.507Z,18.49
2022-10-17T23:32:43.894Z,18.52
2022-10-17T23:35:10.705Z,18.45
2022-10-17T23:37:37.766Z,18.43
2022-10-17T23:40:05.297Z,18.38
2022-10-17T23:42:31.718Z,18.46
2022-10-17T23:44:58.078Z,18.51
2022-10-17T23:47:24.469Z,18.45
2022-10-17T23:49:50.895Z,18.38
2022-10-17T23:52:17.292Z,18.43
2022-10-17T23:54:43.653Z,18.34
2022-10-17T23:57:09.991Z,18.37
2022-10-17T23:59:36.316Z,18.28
